createdAt,value
2018-10-15T00:03:48.327Z,14.49
2018-10-15T00:09:52.910Z,14.78
2018-10-15T00:15:57.790Z,14.73
2018-10-15T00:22:02.432Z,14.62
2018-10-15T00:28:07.372Z,14.59
2018-10-15T00:34:12.022Z,14.11
2018-10-15T00:40:16.631Z,14.00
2018-10-15T00:46:21.288Z,13.79
2018-10-15T00:52:25.917Z,13.82
2018-10-15T00:58:30.566Z,13.47
2018-10-15T01:04:35.180Z,13.80
2018-10-15T01:10:39.816Z,13.77
2018-10-15T01:16:44.403Z,13.44
2018-10-15T01:22:49.350Z,13.32
2018-10-15T01:28:54.305Z,13.38
2018-10-15T01:34:58.956Z,13.14
2018-10-15T01:41:03.784Z,13.14
2018-10-15T01:47:08.446Z,13.22
2018-10-15T01:53:13.056Z,13.34
2018-10-15T01:59:17.709Z,13.44
2018-10-15T02:05:22.647Z,13.38
2018-10-15T02:11:27.647Z,13.54
2018-10-15T02:17:33.475Z,13.45
2018-10-15T02:23:38.462Z,13.60
2018-10-15T02:29:43.128Z,13.50
2018-10-15T02:35:48.089Z,13.17
2018-10-15T02:41:52.723Z,13.11
2018-10-15T02:47:57.349Z,12.99
2018-10-15T02:54:01.989Z,12.92
2018-10-15T03:00:10.761Z,12.73
2018-10-15T03:06:15.429Z,12.79
2018-10-15T03:12:20.067Z,12.58
2018-10-15T03:18:24.696Z,12.83
2018-10-15T03:24:29.343Z,12.67
2018-10-15T03:30:34.460Z,12.66
2018-10-15T03:36:39.438Z,12.99
2018-10-15T03:42:44.398Z,12.89
2018-10-15T03:48:49.021Z,12.40
2018-10-15T03:54:53.660Z,12.25
2018-10-15T04:00:58.294Z,11.90
2018-10-15T04:07:03.270Z,11.85
2018-10-15T04:13:08.591Z,11.69
2018-10-15T04:19:13.611Z,11.41
2018-10-15T04:25:19.684Z,11.27
2018-10-15T04:31:24.336Z,11.27
2018-10-15T04:37:29.273Z,11.25
2018-10-15T04:43:33.874Z,11.12
2018-10-15T04:49:39.098Z,10.74
2018-10-15T04:55:43.796Z,10.62
2018-10-15T05:01:48.418Z,10.41
2018-10-15T05:07:53.071Z,10.44
2018-10-15T05:13:57.707Z,10.66
2018-10-15T05:20:02.352Z,10.80
2018-10-15T05:26:07.258Z,11.21
2018-10-15T05:32:11.897Z,11.93
2018-10-15T05:38:16.618Z,12.12
2018-10-15T05:44:26.546Z,12.08
2018-10-15T05:50:31.462Z,12.08
2018-10-15T05:56:36.112Z,11.81
2018-10-15T06:02:40.749Z,11.83
2018-10-15T06:08:45.660Z,11.76
2018-10-15T06:14:50.641Z,11.89
2018-10-15T06:20:55.236Z,12.04
2018-10-15T06:26:59.858Z,11.91
2018-10-15T06:33:04.582Z,11.67
2018-10-15T06:39:10.058Z,11.71
2018-10-15T06:45:14.841Z,11.76
2018-10-15T06:51:19.791Z,11.88
2018-10-15T06:57:24.422Z,11.67
2018-10-15T07:03:29.117Z,11.90
2018-10-15T07:09:34.061Z,11.89
2018-10-15T07:15:39.310Z,12.29
2018-10-15T07:21:44.297Z,12.56
2018-10-15T07:27:49.547Z,12.46
2018-10-15T07:33:54.536Z,12.56
2018-10-15T07:39:59.172Z,12.72
2018-10-15T07:46:04.476Z,12.98
2018-10-15T07:52:09.150Z,12.80
2018-10-15T07:58:14.025Z,13.07
2018-10-15T08:04:18.782Z,13.12
2018-10-15T08:10:23.486Z,13.40
2018-10-15T08:16:29.047Z,13.41
2018-10-15T08:22:33.718Z,13.78
2018-10-15T08:28:38.858Z,14.16
2018-10-15T08:34:43.449Z,14.22
2018-10-15T08:40:47.981Z,14.32
2018-10-15T08:46:52.605Z,14.47
2018-10-15T08:52:57.180Z,14.71
2018-10-15T08:59:01.768Z,14.93
2018-10-15T09:05:08.014Z,15.38
2018-10-15T09:11:12.576Z,15.78
2018-10-15T09:17:17.151Z,15.84
2018-10-15T09:23:21.796Z,16.03
2018-10-15T09:29:26.704Z,16.36
2018-10-15T09:35:31.458Z,16.63
2018-10-15T09:41:36.063Z,16.71
2018-10-15T09:47:40.653Z,16.77
2018-10-15T09:53:45.510Z,17.02
2018-10-15T09:59:50.127Z,17.23
2018-10-15T10:05:54.738Z,17.35
2018-10-15T10:11:59.359Z,17.42
2018-10-15T10:18:04.052Z,17.61
2018-10-15T10:24:08.614Z,17.78
2018-10-15T10:30:14.395Z,18.17
2018-10-15T10:36:18.993Z,18.38
2018-10-15T10:42:23.628Z,18.66
2018-10-15T10:48:28.236Z,18.77
2018-10-15T10:54:33.178Z,19.10
2018-10-15T11:00:37.820Z,19.46
2018-10-15T11:06:43.237Z,19.96
2018-10-15T11:12:48.263Z,20.80
2018-10-15T11:18:52.915Z,21.47
2018-10-15T11:24:57.855Z,21.56
2018-10-15T11:31:02.530Z,21.98
2018-10-15T11:37:08.380Z,22.71
2018-10-15T11:43:13.144Z,23.08
2018-10-15T11:49:17.699Z,23.79
2018-10-15T11:55:22.284Z,24.18
2018-10-15T12:01:26.963Z,24.69
2018-10-15T12:07:31.615Z,25.75
2018-10-15T12:13:36.202Z,28.10
2018-10-15T12:19:41.580Z,30.60
2018-10-15T12:25:46.211Z,32.00
2018-10-15T12:31:51.030Z,32.79
2018-10-15T12:37:55.646Z,32.25
2018-10-15T12:44:00.254Z,31.25
2018-10-15T12:50:06.047Z,30.07
2018-10-15T12:56:10.681Z,29.73
2018-10-15T13:02:15.309Z,29.31
2018-10-15T13:08:20.248Z,29.75
2018-10-15T13:14:24.879Z,29.87
2018-10-15T13:20:29.487Z,30.49
2018-10-15T13:26:34.198Z,31.12
2018-10-15T13:32:39.355Z,31.21
2018-10-15T13:38:44.024Z,33.06
2018-10-15T13:44:48.895Z,34.71
2018-10-15T13:50:53.566Z,35.65
2018-10-15T13:56:58.275Z,35.23
2018-10-15T14:03:02.897Z,34.63
2018-10-15T14:09:10.373Z,33.26
2018-10-15T14:15:15.321Z,31.26
2018-10-15T14:21:20.474Z,31.03
2018-10-15T14:27:25.157Z,29.69
2018-10-15T14:33:30.075Z,28.33
2018-10-15T14:39:34.820Z,26.96
2018-10-15T14:45:39.963Z,26.37
2018-10-15T14:51:44.969Z,25.11
2018-10-15T14:57:49.996Z,24.21
2018-10-15T15:03:55.759Z,23.42
2018-10-15T15:10:17.506Z,23.40
2018-10-15T15:16:22.173Z,23.59
2018-10-15T15:22:27.134Z,23.19
2018-10-15T15:28:31.803Z,23.08
2018-10-15T15:34:36.472Z,23.45
2018-10-15T15:40:41.502Z,24.53
2018-10-15T15:46:46.433Z,24.94
2018-10-15T15:52:51.081Z,24.87
2018-10-15T15:58:55.758Z,24.15
2018-10-15T16:05:00.414Z,23.32
2018-10-15T16:11:05.230Z,22.56
2018-10-15T16:17:09.892Z,21.87
2018-10-15T16:23:14.521Z,21.66
2018-10-15T16:29:19.160Z,21.33
2018-10-15T16:35:23.865Z,20.84
2018-10-15T16:41:28.971Z,20.49
2018-10-15T16:47:34.352Z,20.17
2018-10-15T16:53:39.219Z,20.12
2018-10-15T16:59:43.866Z,19.98
2018-10-15T17:05:48.849Z,19.63
2018-10-15T17:11:53.782Z,19.38
2018-10-15T17:17:58.405Z,19.27
2018-10-15T17:24:03.055Z,19.19
2018-10-15T17:30:09.216Z,19.05
2018-10-15T17:36:13.923Z,18.74
2018-10-15T17:42:19.023Z,18.41
2018-10-15T17:48:23.766Z,18.41
2018-10-15T17:54:28.611Z,18.35
2018-10-15T18:00:38.226Z,17.99
2018-10-15T18:06:42.871Z,18.10
2018-10-15T18:12:47.838Z,17.69
2018-10-15T18:18:52.614Z,17.66
2018-10-15T18:24:57.280Z,17.47
2018-10-15T18:31:01.940Z,17.25
2018-10-15T18:37:06.963Z,17.19
2018-10-15T18:43:11.660Z,16.84
2018-10-15T18:49:16.683Z,16.70
2018-10-15T18:55:21.355Z,16.62
2018-10-15T19:01:26.413Z,16.48
2018-10-15T19:07:31.024Z,16.60
2018-10-15T19:13:36.093Z,16.53
2018-10-15T19:19:41.093Z,16.18
2018-10-15T19:25:45.892Z,15.94
2018-10-15T19:31:50.529Z,15.72
2018-10-15T19:37:55.188Z,15.60
2018-10-15T19:44:00.236Z,15.37
2018-10-15T19:50:06.339Z,15.27
2018-10-15T19:56:11.259Z,15.20
2018-10-15T20:02:16.322Z,15.37
2018-10-15T20:08:21.025Z,15.27
2018-10-15T20:14:25.684Z,15.00
2018-10-15T20:20:30.430Z,15.06
2018-10-15T20:26:35.594Z,14.89
2018-10-15T20:32:40.821Z,14.88
2018-10-15T20:38:45.502Z,14.77
2018-10-15T20:44:50.487Z,14.67
2018-10-15T20:50:55.137Z,14.43
2018-10-15T20:56:59.759Z,14.32
2018-10-15T21:03:04.492Z,14.12
2018-10-15T21:09:11.969Z,14.15
2018-10-15T21:15:16.886Z,14.08
2018-10-15T21:21:21.543Z,14.14
2018-10-15T21:27:26.208Z,14.06
2018-10-15T21:33:30.843Z,14.13
2018-10-15T21:39:35.559Z,13.83
2018-10-15T21:45:40.327Z,13.50
2018-10-15T21:51:45.063Z,13.03
2018-10-15T21:57:49.692Z,12.95
2018-10-15T22:03:54.233Z,13.02
2018-10-15T22:10:03.946Z,12.85
2018-10-15T22:16:08.728Z,12.65
2018-10-15T22:22:13.314Z,12.52
2018-10-15T22:28:18.012Z,12.49
2018-10-15T22:34:22.641Z,12.41
2018-10-15T22:40:27.263Z,12.72
2018-10-15T22:46:31.976Z,12.69
2018-10-15T22:52:37.170Z,12.88
2018-10-15T22:58:42.174Z,12.68
2018-10-15T23:04:46.817Z,12.49
2018-10-15T23:10:51.515Z,12.29
2018-10-15T23:16:56.183Z,12.37
2018-10-15T23:23:01.160Z,12.57
2018-10-15T23:29:06.654Z,12.24
2018-10-15T23:35:12.233Z,11.94
2018-10-15T23:41:17.182Z,11.68
2018-10-15T23:47:21.882Z,11.78
2018-10-15T23:53:26.571Z,11.89
2018-10-15T23:59:31.527Z,11.53
